Time;durP1;ratioP1;P1;durP2;ratioP2;P2;SDS_P1;SDS_P2;PMS_P1;PMS_P2;Temp;Humidity;BMP_temperature;BMP_pressure;BME280_temperature;BME280_humidity;BME280_pressure;Samples;Min_cycle;Max_cycle;Signal;HPM_P1;HPM_P2
2020/10/25 00:01:44;;;;;;;2.40;1.69;;;;;;;19.71;61.47;100115.55;;;;-51
2020/10/25 00:04:44;;;;;;;1.89;1.65;;;;;;;19.70;61.53;100111.63;;;;-50
2020/10/25 00:07:44;;;;;;;2.25;1.70;;;;;;;19.70;61.47;100104.80;;;;-50
2020/10/25 00:10:44;;;;;;;2.30;1.59;;;;;;;19.69;61.48;100097.95;;;;-51
2020/10/25 00:13:45;;;;;;;2.76;1.71;;;;;;;19.68;61.47;100087.08;;;;-51
2020/10/25 00:16:44;;;;;;;1.94;1.72;;;;;;;19.67;61.50;100087.49;;;;-51
2020/10/25 00:19:44;;;;;;;1.85;1.75;;;;;;;19.68;61.44;100087.23;;;;-51
2020/10/25 00:22:54;;;;;;;1.66;1.55;;;;;;;19.67;61.46;100083.81;;;;-51
2020/10/25 00:25:44;;;;;;;1.78;1.63;;;;;;;19.65;61.50;100074.48;;;;-51
2020/10/25 00:28:45;;;;;;;2.68;1.70;;;;;;;19.66;61.46;100070.16;;;;-52
2020/10/25 00:31:44;;;;;;;1.90;1.57;;;;;;;19.65;61.43;100065.80;;;;-51
2020/10/25 00:34:44;;;;;;;1.91;1.61;;;;;;;19.64;61.49;100056.36;;;;-51
2020/10/25 00:37:44;;;;;;;1.64;1.54;;;;;;;19.64;61.38;100058.22;;;;-52
2020/10/25 00:40:44;;;;;;;1.60;1.50;;;;;;;19.63;61.45;100057.09;;;;-51
2020/10/25 00:43:44;;;;;;;1.80;1.67;;;;;;;19.63;61.46;100049.59;;;;-52
2020/10/25 00:46:44;;;;;;;1.66;1.56;;;;;;;19.62;61.46;100050.98;;;;-52
2020/10/25 00:49:44;;;;;;;2.59;1.61;;;;;;;19.61;61.53;100040.33;;;;-48
2020/10/25 00:52:44;;;;;;;2.40;1.67;;;;;;;19.61;61.48;100037.41;;;;-48
2020/10/25 00:55:44;;;;;;;1.85;1.70;;;;;;;19.61;61.49;100034.72;;;;-48
2020/10/25 00:58:44;;;;;;;2.63;1.71;;;;;;;19.61;61.45;100027.16;;;;-48
2020/10/25 01:01:44;;;;;;;1.93;1.55;;;;;;;19.60;61.48;100033.75;;;;-51
2020/10/25 01:04:44;;;;;;;1.70;1.60;;;;;;;19.59;61.46;100037.34;;;;-52
2020/10/25 01:07:44;;;;;;;1.97;1.67;;;;;;;19.60;61.47;100039.05;;;;-51
2020/10/25 01:10:44;;;;;;;2.01;1.64;;;;;;;19.58;61.53;100027.41;;;;-52
2020/10/25 01:13:44;;;;;;;1.63;1.53;;;;;;;19.58;61.44;100027.49;;;;-51
2020/10/25 01:16:44;;;;;;;1.76;1.53;;;;;;;19.59;61.47;100032.20;;;;-58
2020/10/25 01:19:44;;;;;;;2.05;1.70;;;;;;;19.58;61.44;100027.50;;;;-52
2020/10/25 01:22:44;;;;;;;2.22;1.59;;;;;;;19.57;61.44;100025.81;;;;-52
2020/10/25 01:25:44;;;;;;;1.62;1.52;;;;;;;19.57;61.50;100029.86;;;;-51
2020/10/25 01:28:44;;;;;;;1.92;1.57;;;;;;;19.57;61.42;100019.20;;;;-58
2020/10/25 01:31:44;;;;;;;1.69;1.59;;;;;;;19.56;61.50;100011.73;;;;-58
2020/10/25 01:34:44;;;;;;;1.73;1.63;;;;;;;19.55;61.46;100000.44;;;;-58
2020/10/25 01:37:44;;;;;;;1.66;1.51;;;;;;;19.56;61.50;99990.61;;;;-58
2020/10/25 01:40:44;;;;;;;1.96;1.80;;;;;;;19.55;61.45;99989.12;;;;-58
2020/10/25 01:43:44;;;;;;;1.92;1.67;;;;;;;19.55;61.48;99989.31;;;;-52
2020/10/25 01:46:45;;;;;;;2.29;1.59;;;;;;;19.55;61.50;99978.72;;;;-52
2020/10/25 01:49:44;;;;;;;1.60;1.50;;;;;;;19.55;61.46;99973.20;;;;-52
2020/10/25 01:52:44;;;;;;;1.83;1.67;;;;;;;19.54;61.47;99963.86;;;;-52
2020/10/25 01:55:44;;;;;;;1.69;1.59;;;;;;;19.53;61.45;99960.63;;;;-51
2020/10/25 01:58:44;;;;;;;1.70;1.60;;;;;;;19.53;61.48;99961.28;;;;-52
2020/10/25 02:01:44;;;;;;;1.81;1.64;;;;;;;19.53;61.40;99961.52;;;;-51
2020/10/25 02:04:44;;;;;;;1.93;1.60;;;;;;;19.52;61.49;99959.31;;;;-52
2020/10/25 02:07:44;;;;;;;1.67;1.57;;;;;;;19.52;61.44;99957.28;;;;-51
2020/10/25 02:10:44;;;;;;;2.21;1.60;;;;;;;19.52;61.45;99957.36;;;;-51
2020/10/25 02:13:44;;;;;;;1.87;1.68;;;;;;;19.52;61.48;99955.91;;;;-51
2020/10/25 02:16:44;;;;;;;1.59;1.49;;;;;;;19.51;61.47;99951.61;;;;-51
2020/10/25 02:19:44;;;;;;;1.71;1.61;;;;;;;19.51;61.41;99948.20;;;;-51
2020/10/25 02:22:44;;;;;;;1.95;1.50;;;;;;;19.50;61.42;99946.23;;;;-51
2020/10/25 02:25:44;;;;;;;1.77;1.61;;;;;;;19.50;61.48;99954.27;;;;-51
2020/10/25 02:28:44;;;;;;;1.67;1.57;;;;;;;19.51;61.40;99954.84;;;;-51
2020/10/25 02:31:44;;;;;;;1.57;1.47;;;;;;;19.49;61.44;99955.34;;;;-51
2020/10/25 02:34:44;;;;;;;1.71;1.61;;;;;;;19.50;61.41;99956.23;;;;-51
2020/10/25 02:37:44;;;;;;;1.75;1.65;;;;;;;19.49;61.44;99947.63;;;;-51
2020/10/25 02:40:44;;;;;;;1.72;1.62;;;;;;;19.49;61.44;99933.82;;;;-58
2020/10/25 02:43:44;;;;;;;1.69;1.59;;;;;;;19.48;61.51;99932.98;;;;-61
2020/10/25 02:46:44;;;;;;;1.54;1.44;;;;;;;19.48;61.41;99924.62;;;;-58
2020/10/25 02:49:44;;;;;;;1.60;1.50;;;;;;;19.48;61.37;99913.49;;;;-58
2020/10/25 02:52:44;;;;;;;1.93;1.51;;;;;;;19.47;61.35;99900.09;;;;-52
2020/10/25 02:55:44;;;;;;;1.59;1.49;;;;;;;19.48;61.42;99901.94;;;;-52
2020/10/25 02:58:44;;;;;;;1.63;1.53;;;;;;;19.46;61.46;99894.58;;;;-52
2020/10/25 03:01:44;;;;;;;1.64;1.51;;;;;;;19.46;61.43;99882.94;;;;-51
2020/10/25 03:04:44;;;;;;;1.71;1.61;;;;;;;19.46;61.45;99883.42;;;;-51
2020/10/25 03:07:44;;;;;;;1.50;1.40;;;;;;;19.46;61.43;99876.68;;;;-52
2020/10/25 03:10:44;;;;;;;1.84;1.67;;;;;;;19.45;61.31;99873.20;;;;-52
2020/10/25 03:13:45;;;;;;;1.64;1.54;;;;;;;19.45;61.36;99867.11;;;;-51
2020/10/25 03:16:44;;;;;;;1.63;1.53;;;;;;;19.45;61.37;99861.73;;;;-51
2020/10/25 03:19:44;;;;;;;1.76;1.57;;;;;;;19.45;61.40;99859.31;;;;-51
2020/10/25 03:22:44;;;;;;;1.53;1.43;;;;;;;19.44;61.38;99855.42;;;;-58
2020/10/25 03:25:44;;;;;;;1.61;1.51;;;;;;;19.44;61.40;99855.64;;;;-58
2020/10/25 03:28:44;;;;;;;1.61;1.51;;;;;;;19.44;61.39;99860.62;;;;-59
2020/10/25 03:31:44;;;;;;;2.27;1.57;;;;;;;19.44;61.41;99859.38;;;;-58
2020/10/25 03:34:44;;;;;;;2.11;1.58;;;;;;;19.43;61.42;99851.50;;;;-52
2020/10/25 03:37:44;;;;;;;1.60;1.50;;;;;;;19.44;61.36;99855.97;;;;-52
2020/10/25 03:40:44;;;;;;;1.59;1.49;;;;;;;19.43;61.32;99855.00;;;;-52
2020/10/25 03:43:44;;;;;;;1.53;1.43;;;;;;;19.44;61.26;99856.45;;;;-52
2020/10/25 03:46:44;;;;;;;1.98;1.41;;;;;;;19.43;61.39;99861.84;;;;-51
2020/10/25 03:49:44;;;;;;;1.65;1.49;;;;;;;19.42;61.38;99869.78;;;;-51
2020/10/25 03:52:44;;;;;;;1.50;1.40;;;;;;;19.41;61.40;99866.55;;;;-52
2020/10/25 03:55:44;;;;;;;1.60;1.50;;;;;;;19.41;61.40;99874.59;;;;-52
2020/10/25 03:58:44;;;;;;;1.58;1.48;;;;;;;19.41;61.40;99881.83;;;;-51
2020/10/25 04:01:44;;;;;;;1.51;1.41;;;;;;;19.40;61.50;99883.44;;;;-52
2020/10/25 04:04:44;;;;;;;1.60;1.50;;;;;;;19.41;61.35;99888.09;;;;-52
2020/10/25 04:07:44;;;;;;;1.53;1.43;;;;;;;19.40;61.42;99890.42;;;;-52
2020/10/25 04:10:44;;;;;;;1.53;1.43;;;;;;;19.39;61.44;99885.24;;;;-52
2020/10/25 04:13:44;;;;;;;1.60;1.50;;;;;;;19.39;61.44;99882.56;;;;-51
2020/10/25 04:16:44;;;;;;;1.54;1.44;;;;;;;19.39;61.36;99879.72;;;;-52
2020/10/25 04:19:44;;;;;;;1.60;1.50;;;;;;;19.38;61.41;99869.08;;;;-52
2020/10/25 04:22:44;;;;;;;1.57;1.47;;;;;;;19.38;61.33;99862.98;;;;-52
2020/10/25 04:25:44;;;;;;;1.57;1.47;;;;;;;19.37;61.38;99858.34;;;;-52
2020/10/25 04:28:44;;;;;;;1.61;1.51;;;;;;;19.37;61.38;99855.83;;;;-52
2020/10/25 04:31:44;;;;;;;1.50;1.40;;;;;;;19.37;61.39;99850.63;;;;-52
2020/10/25 04:34:44;;;;;;;1.75;1.61;;;;;;;19.37;61.29;99842.83;;;;-52
2020/10/25 04:37:44;;;;;;;1.47;1.37;;;;;;;19.37;61.42;99829.52;;;;-52
2020/10/25 04:40:44;;;;;;;1.60;1.50;;;;;;;19.37;61.29;99821.71;;;;-51
2020/10/25 04:43:44;;;;;;;1.60;1.50;;;;;;;19.37;61.35;99845.20;;;;-52
2020/10/25 04:46:44;;;;;;;1.55;1.45;;;;;;;19.36;61.31;99851.11;;;;-51
2020/10/25 04:49:44;;;;;;;1.50;1.40;;;;;;;19.36;61.38;99840.06;;;;-52
2020/10/25 04:52:44;;;;;;;1.61;1.49;;;;;;;19.35;61.33;99842.59;;;;-51
2020/10/25 04:55:44;;;;;;;1.50;1.40;;;;;;;19.36;61.26;99821.46;;;;-51
2020/10/25 04:58:44;;;;;;;1.72;1.62;;;;;;;19.35;61.32;99815.45;;;;-52
2020/10/25 05:01:44;;;;;;;1.57;1.47;;;;;;;19.35;61.36;99816.34;;;;-51
2020/10/25 05:04:44;;;;;;;1.46;1.36;;;;;;;19.34;61.34;99805.97;;;;-52
2020/10/25 05:07:44;;;;;;;1.43;1.33;;;;;;;19.35;61.38;99803.28;;;;-48
2020/10/25 05:10:44;;;;;;;1.60;1.50;;;;;;;19.34;61.29;99808.79;;;;-48
2020/10/25 05:13:44;;;;;;;1.50;1.30;;;;;;;19.34;61.25;99801.72;;;;-48
2020/10/25 05:16:44;;;;;;;1.79;1.50;;;;;;;19.33;61.40;99797.27;;;;-48
2020/10/25 05:19:44;;;;;;;1.47;1.37;;;;;;;19.33;61.32;99792.40;;;;-48
2020/10/25 05:22:44;;;;;;;1.51;1.41;;;;;;;19.33;61.34;99792.64;;;;-48
2020/10/25 05:25:44;;;;;;;1.50;1.40;;;;;;;19.33;61.35;99793.29;;;;-48
2020/10/25 05:28:44;;;;;;;1.68;1.50;;;;;;;19.33;61.33;99790.69;;;;-48
2020/10/25 05:31:44;;;;;;;1.60;1.50;;;;;;;19.32;61.43;99777.05;;;;-48
2020/10/25 05:34:44;;;;;;;1.65;1.55;;;;;;;19.31;61.25;99776.55;;;;-48
2020/10/25 05:37:44;;;;;;;2.02;1.44;;;;;;;19.32;61.29;99775.66;;;;-48
2020/10/25 05:40:44;;;;;;;1.51;1.41;;;;;;;19.31;61.29;99773.14;;;;-58
2020/10/25 05:43:44;;;;;;;1.53;1.43;;;;;;;19.31;61.28;99767.13;;;;-58
2020/10/25 05:46:45;;;;;;;1.82;1.66;;;;;;;19.31;61.33;99765.42;;;;-57
2020/10/25 05:49:44;;;;;;;1.61;1.51;;;;;;;19.29;61.36;99762.50;;;;-58
2020/10/25 05:52:44;;;;;;;1.49;1.39;;;;;;;19.29;61.26;99750.80;;;;-58
2020/10/25 05:55:44;;;;;;;1.45;1.35;;;;;;;19.30;61.31;99750.55;;;;-58
2020/10/25 05:58:44;;;;;;;1.55;1.44;;;;;;;19.29;61.38;99757.71;;;;-58
2020/10/25 06:01:44;;;;;;;1.48;1.38;;;;;;;19.29;61.34;99756.16;;;;-58
2020/10/25 06:04:44;;;;;;;1.68;1.58;;;;;;;19.28;61.30;99756.52;;;;-57
2020/10/25 06:07:44;;;;;;;1.57;1.47;;;;;;;19.28;61.32;99747.66;;;;-59
2020/10/25 06:10:44;;;;;;;1.55;1.45;;;;;;;19.28;61.25;99754.56;;;;-58
2020/10/25 06:13:44;;;;;;;1.76;1.56;;;;;;;19.28;61.31;99764.31;;;;-58
2020/10/25 06:16:44;;;;;;;1.51;1.41;;;;;;;19.28;61.32;99758.63;;;;-57
2020/10/25 06:19:44;;;;;;;1.54;1.44;;;;;;;19.27;61.30;99754.22;;;;-58
2020/10/25 06:22:44;;;;;;;1.59;1.44;;;;;;;19.27;61.37;99761.79;;;;-60
2020/10/25 06:25:44;;;;;;;11.65;2.51;;;;;;;19.21;58.70;99770.02;;;;-53
2020/10/25 06:28:44;;;;;;;3.43;2.21;;;;;;;19.06;58.20;99766.82;;;;-57
2020/10/25 06:31:44;;;;;;;3.57;2.32;;;;;;;19.08;58.85;99771.28;;;;-60
2020/10/25 06:34:44;;;;;;;2.53;2.33;;;;;;;19.11;59.07;99771.28;;;;-61
2020/10/25 06:37:44;;;;;;;2.81;2.09;;;;;;;19.15;59.47;99776.28;;;;-61
2020/10/25 06:40:44;;;;;;;2.24;2.04;;;;;;;19.18;59.71;99776.61;;;;-61
2020/10/25 06:43:44;;;;;;;2.73;1.93;;;;;;;19.21;59.85;99785.61;;;;-62
2020/10/25 06:46:44;;;;;;;3.04;1.80;;;;;;;19.24;59.89;99784.06;;;;-63
2020/10/25 06:49:44;;;;;;;2.11;1.89;;;;;;;19.26;60.02;99780.08;;;;-61
2020/10/25 06:52:45;;;;;;;2.62;1.80;;;;;;;19.28;60.07;99782.24;;;;-62
2020/10/25 06:55:44;;;;;;;2.52;1.89;;;;;;;19.32;60.13;99786.94;;;;-62
2020/10/25 06:58:44;;;;;;;1.99;1.71;;;;;;;19.34;60.22;99791.42;;;;-62
2020/10/25 07:01:44;;;;;;;2.35;1.69;;;;;;;19.36;60.21;99787.25;;;;-62
2020/10/25 07:04:44;;;;;;;1.91;1.65;;;;;;;19.38;60.32;99796.67;;;;-61
2020/10/25 07:07:44;;;;;;;2.24;1.76;;;;;;;19.41;60.27;99797.81;;;;-62
2020/10/25 07:10:44;;;;;;;2.38;1.85;;;;;;;19.43;60.16;99801.14;;;;-62
2020/10/25 07:13:44;;;;;;;3.21;1.69;;;;;;;19.45;60.24;99802.43;;;;-62
2020/10/25 07:16:44;;;;;;;4.08;1.83;;;;;;;19.47;60.26;99801.53;;;;-62
2020/10/25 07:19:44;;;;;;;4.15;1.79;;;;;;;19.48;60.34;99802.65;;;;-62
2020/10/25 07:22:45;;;;;;;3.25;1.90;;;;;;;19.48;60.36;99797.52;;;;-62
2020/10/25 07:25:44;;;;;;;2.98;1.69;;;;;;;19.50;60.46;99793.21;;;;-61
2020/10/25 07:28:44;;;;;;;1.90;1.61;;;;;;;19.51;60.47;99777.46;;;;-62
2020/10/25 07:31:44;;;;;;;2.28;1.69;;;;;;;19.51;60.39;99763.00;;;;-62
2020/10/25 07:34:44;;;;;;;2.77;1.79;;;;;;;19.52;60.48;99770.04;;;;-61
2020/10/25 07:37:44;;;;;;;2.23;1.83;;;;;;;19.53;60.49;99760.93;;;;-62
2020/10/25 07:41:44;;;;;;;2.45;1.70;;;;;;;19.54;60.43;99749.23;;;;-61
2020/10/25 07:44:44;;;;;;;2.01;1.81;;;;;;;19.53;60.52;99743.30;;;;-61
2020/10/25 07:47:44;;;;;;;3.89;1.70;;;;;;;19.54;60.48;99738.02;;;;-61
2020/10/25 07:50:44;;;;;;;1.89;1.70;;;;;;;19.54;60.53;99742.64;;;;-61
2020/10/25 07:53:44;;;;;;;2.04;1.71;;;;;;;19.54;60.49;99743.94;;;;-61
2020/10/25 07:56:44;;;;;;;3.12;1.76;;;;;;;19.54;60.46;99739.06;;;;-62
2020/10/25 07:59:44;;;;;;;3.32;1.61;;;;;;;19.55;60.53;99734.05;;;;-62
2020/10/25 08:02:44;;;;;;;2.45;1.77;;;;;;;19.55;60.47;99735.58;;;;-62
2020/10/25 08:05:44;;;;;;;1.97;1.69;;;;;;;19.55;60.45;99737.45;;;;-62
2020/10/25 08:08:44;;;;;;;2.75;1.66;;;;;;;19.56;60.40;99740.94;;;;-62
2020/10/25 08:11:44;;;;;;;2.89;1.65;;;;;;;19.56;60.48;99740.20;;;;-62
2020/10/25 08:14:44;;;;;;;1.71;1.61;;;;;;;19.56;60.44;99749.87;;;;-61
2020/10/25 08:17:44;;;;;;;1.67;1.57;;;;;;;19.56;60.52;99736.45;;;;-62
2020/10/25 08:20:44;;;;;;;1.83;1.73;;;;;;;19.57;60.48;99735.66;;;;-63
2020/10/25 08:23:44;;;;;;;2.03;1.83;;;;;;;19.56;60.51;99733.86;;;;-61
2020/10/25 08:26:44;;;;;;;1.81;1.70;;;;;;;19.57;60.47;99735.41;;;;-62
2020/10/25 08:29:44;;;;;;;1.83;1.70;;;;;;;19.57;60.45;99728.07;;;;-61
2020/10/25 08:32:44;;;;;;;1.84;1.74;;;;;;;19.57;60.44;99738.97;;;;-62
2020/10/25 08:35:45;;;;;;;1.81;1.67;;;;;;;19.57;60.44;99735.00;;;;-61
2020/10/25 08:38:44;;;;;;;2.79;1.61;;;;;;;19.57;60.44;99733.55;;;;-63
2020/10/25 08:41:44;;;;;;;1.77;1.64;;;;;;;19.57;60.51;99739.28;;;;-61
2020/10/25 08:44:44;;;;;;;2.31;1.67;;;;;;;19.57;60.55;99736.55;;;;-62
2020/10/25 08:47:44;;;;;;;1.75;1.62;;;;;;;19.57;60.48;99733.92;;;;-61
2020/10/25 08:50:44;;;;;;;1.81;1.70;;;;;;;19.57;60.41;99732.79;;;;-62
2020/10/25 08:53:44;;;;;;;1.70;1.60;;;;;;;19.57;60.46;99726.13;;;;-62
2020/10/25 08:56:44;;;;;;;1.97;1.78;;;;;;;19.56;60.50;99708.91;;;;-61
2020/10/25 08:59:44;;;;;;;1.70;1.60;;;;;;;19.57;60.44;99705.75;;;;-62
2020/10/25 09:02:44;;;;;;;2.45;1.68;;;;;;;19.56;60.46;99711.59;;;;-53
2020/10/25 09:05:44;;;;;;;2.39;1.65;;;;;;;19.56;60.48;99709.06;;;;-53
2020/10/25 09:08:44;;;;;;;1.70;1.60;;;;;;;19.55;60.57;99691.20;;;;-53
2020/10/25 09:11:44;;;;;;;1.70;1.60;;;;;;;19.56;60.52;99683.96;;;;-53
2020/10/25 09:14:44;;;;;;;2.48;1.75;;;;;;;19.56;60.59;99671.11;;;;-52
2020/10/25 09:17:44;;;;;;;3.82;1.62;;;;;;;19.57;60.90;99660.23;;;;-52
2020/10/25 09:20:44;;;;;;;1.75;1.65;;;;;;;19.57;61.05;99662.83;;;;-51
2020/10/25 09:23:44;;;;;;;1.94;1.62;;;;;;;19.59;60.97;99660.47;;;;-49
2020/10/25 09:31:04;;;;;;;2.11;1.75;;;;;;;19.62;60.93;99667.10;;;;-61
2020/10/25 09:33:44;;;;;;;1.75;1.55;;;;;;;19.64;61.12;99666.77;;;;-46
2020/10/25 09:36:50;;;;;;;2.17;1.71;;;;;;;19.66;61.06;99669.75;;;;-47
2020/10/25 09:39:44;;;;;;;1.65;1.55;;;;;;;19.67;60.96;99668.78;;;;-57
2020/10/25 09:42:44;;;;;;;1.65;1.55;;;;;;;19.68;60.89;99659.42;;;;-59
2020/10/25 09:45:44;;;;;;;2.37;1.70;;;;;;;19.69;60.85;99651.34;;;;-59
2020/10/25 09:48:44;;;;;;;2.57;1.60;;;;;;;19.70;60.86;99656.91;;;;-47
2020/10/25 09:51:44;;;;;;;1.65;1.55;;;;;;;19.72;60.83;99657.80;;;;-52
2020/10/25 09:54:44;;;;;;;2.57;1.69;;;;;;;19.73;61.02;99661.42;;;;-51
2020/10/25 09:57:44;;;;;;;2.53;1.50;;;;;;;19.75;60.92;99666.88;;;;-51
2020/10/25 10:00:44;;;;;;;1.86;1.54;;;;;;;19.76;60.85;99662.41;;;;-54
2020/10/25 10:03:44;;;;;;;1.67;1.57;;;;;;;19.76;60.81;99660.45;;;;-53
2020/10/25 10:06:44;;;;;;;3.13;1.61;;;;;;;19.78;60.89;99667.03;;;;-52
2020/10/25 10:09:44;;;;;;;1.62;1.52;;;;;;;19.79;60.86;99662.53;;;;-46
2020/10/25 10:12:44;;;;;;;1.75;1.53;;;;;;;19.79;60.82;99658.28;;;;-49
2020/10/25 10:15:44;;;;;;;1.71;1.61;;;;;;;19.81;60.81;99643.98;;;;-58
2020/10/25 10:18:44;;;;;;;2.05;1.69;;;;;;;19.80;60.73;99632.36;;;;-55
2020/10/25 10:21:44;;;;;;;1.70;1.59;;;;;;;19.82;60.72;99618.61;;;;-49
2020/10/25 10:24:44;;;;;;;2.21;1.71;;;;;;;19.83;60.70;99598.52;;;;-50
2020/10/25 10:27:44;;;;;;;1.93;1.59;;;;;;;19.84;60.71;99594.95;;;;-54
2020/10/25 10:30:44;;;;;;;1.61;1.51;;;;;;;19.85;60.73;99604.99;;;;-58
2020/10/25 10:33:44;;;;;;;1.63;1.53;;;;;;;19.85;60.65;99603.20;;;;-62
2020/10/25 10:36:44;;;;;;;1.71;1.61;;;;;;;19.85;60.68;99607.75;;;;-57
2020/10/25 10:39:44;;;;;;;2.17;1.65;;;;;;;19.87;60.45;99612.06;;;;-59
2020/10/25 10:42:44;;;;;;;3.21;1.71;;;;;;;19.85;60.62;99607.10;;;;-64
2020/10/25 10:45:44;;;;;;;3.79;1.71;;;;;;;19.86;60.69;99604.02;;;;-54
2020/10/25 10:48:44;;;;;;;2.55;1.55;;;;;;;19.86;60.78;99598.41;;;;-61
2020/10/25 10:51:44;;;;;;;2.10;1.65;;;;;;;19.87;60.81;99590.34;;;;-58
2020/10/25 10:54:44;;;;;;;4.01;1.78;;;;;;;19.87;60.75;99588.55;;;;-56
2020/10/25 10:57:44;;;;;;;3.49;1.60;;;;;;;19.89;60.76;99581.71;;;;-56
2020/10/25 11:00:44;;;;;;;1.80;1.51;;;;;;;19.90;60.87;99577.33;;;;-58
2020/10/25 11:03:44;;;;;;;4.09;1.67;;;;;;;19.92;60.80;99577.28;;;;-56
2020/10/25 11:06:44;;;;;;;3.11;1.61;;;;;;;19.90;60.79;99573.75;;;;-56
2020/10/25 11:09:44;;;;;;;1.80;1.64;;;;;;;19.91;60.77;99574.94;;;;-53
2020/10/25 11:12:44;;;;;;;2.70;1.60;;;;;;;19.91;60.71;99572.11;;;;-54
2020/10/25 11:15:44;;;;;;;2.95;1.59;;;;;;;19.91;60.65;99570.88;;;;-54
2020/10/25 11:18:44;;;;;;;3.92;1.82;;;;;;;19.92;60.55;99578.27;;;;-57
2020/10/25 11:21:44;;;;;;;2.80;1.93;;;;;;;19.91;60.54;99571.61;;;;-64
2020/10/25 11:24:44;;;;;;;2.14;1.59;;;;;;;19.90;60.60;99569.11;;;;-63
2020/10/25 11:27:44;;;;;;;2.23;1.51;;;;;;;19.91;60.47;99561.53;;;;-64
2020/10/25 11:30:44;;;;;;;2.75;1.55;;;;;;;19.90;60.53;99545.94;;;;-63
2020/10/25 11:33:44;;;;;;;1.67;1.56;;;;;;;19.91;60.48;99542.42;;;;-51
2020/10/25 11:36:44;;;;;;;2.87;1.71;;;;;;;19.90;60.46;99540.90;;;;-51
2020/10/25 11:39:44;;;;;;;1.70;1.60;;;;;;;19.90;60.46;99537.16;;;;-52
2020/10/25 11:42:44;;;;;;;3.35;1.51;;;;;;;19.89;60.45;99528.86;;;;-51
2020/10/25 11:45:44;;;;;;;2.43;1.64;;;;;;;19.89;60.44;99523.17;;;;-51
2020/10/25 11:48:44;;;;;;;2.03;1.53;;;;;;;19.89;60.39;99518.62;;;;-57
2020/10/25 11:51:44;;;;;;;1.63;1.50;;;;;;;19.88;60.36;99511.23;;;;-57
2020/10/25 11:54:44;;;;;;;1.51;1.40;;;;;;;19.88;60.38;99499.77;;;;-57
2020/10/25 11:57:44;;;;;;;1.67;1.57;;;;;;;19.88;60.40;99492.21;;;;-57
2020/10/25 12:00:44;;;;;;;1.77;1.59;;;;;;;19.88;60.38;99483.27;;;;-57
2020/10/25 12:03:44;;;;;;;1.53;1.43;;;;;;;19.89;60.41;99475.94;;;;-57
2020/10/25 12:06:44;;;;;;;1.66;1.50;;;;;;;19.88;60.43;99473.67;;;;-57
2020/10/25 12:09:44;;;;;;;1.62;1.52;;;;;;;19.87;60.36;99474.39;;;;-58
2020/10/25 12:12:44;;;;;;;1.59;1.49;;;;;;;19.87;60.37;99474.56;;;;-57
2020/10/25 12:15:44;;;;;;;1.56;1.40;;;;;;;19.88;60.35;99479.78;;;;-57
2020/10/25 12:18:44;;;;;;;1.51;1.41;;;;;;;19.88;60.42;99474.73;;;;-57
2020/10/25 12:21:44;;;;;;;1.59;1.49;;;;;;;19.87;60.28;99469.85;;;;-57
2020/10/25 12:24:44;;;;;;;1.91;1.41;;;;;;;19.86;60.36;99465.48;;;;-57
2020/10/25 12:27:44;;;;;;;1.59;1.44;;;;;;;19.87;60.33;99463.34;;;;-57
2020/10/25 12:30:44;;;;;;;1.58;1.48;;;;;;;19.87;60.30;99463.77;;;;-57
2020/10/25 12:33:44;;;;;;;2.13;1.50;;;;;;;19.87;60.37;99454.00;;;;-57
2020/10/25 12:36:44;;;;;;;1.52;1.39;;;;;;;19.86;60.34;99451.00;;;;-58
2020/10/25 12:39:44;;;;;;;2.43;1.50;;;;;;;19.87;60.35;99451.87;;;;-57
2020/10/25 12:42:44;;;;;;;2.35;1.37;;;;;;;19.86;60.29;99442.55;;;;-57
2020/10/25 12:45:44;;;;;;;1.59;1.49;;;;;;;19.86;60.31;99441.66;;;;-57
2020/10/25 12:48:44;;;;;;;1.61;1.51;;;;;;;19.86;60.28;99440.11;;;;-57
2020/10/25 12:51:44;;;;;;;1.44;1.32;;;;;;;19.86;60.32;99444.09;;;;-57
2020/10/25 12:54:44;;;;;;;1.52;1.40;;;;;;;19.85;60.39;99435.64;;;;-57
2020/10/25 12:57:44;;;;;;;1.56;1.46;;;;;;;19.85;60.29;99433.04;;;;-57
2020/10/25 13:00:44;;;;;;;1.53;1.43;;;;;;;19.85;60.27;99429.06;;;;-57
2020/10/25 13:03:44;;;;;;;1.60;1.50;;;;;;;19.85;60.35;99416.80;;;;-57
2020/10/25 13:06:44;;;;;;;1.41;1.31;;;;;;;19.85;60.33;99414.34;;;;-58
2020/10/25 13:09:44;;;;;;;1.72;1.53;;;;;;;19.84;60.32;99408.92;;;;-57
2020/10/25 13:12:44;;;;;;;1.62;1.49;;;;;;;19.85;60.32;99405.16;;;;-57
2020/10/25 13:15:44;;;;;;;1.51;1.40;;;;;;;19.85;60.28;99401.83;;;;-57
2020/10/25 13:18:44;;;;;;;1.62;1.51;;;;;;;19.85;60.32;99400.45;;;;-57
2020/10/25 13:21:44;;;;;;;1.59;1.40;;;;;;;19.85;60.24;99398.33;;;;-57
2020/10/25 13:24:44;;;;;;;1.50;1.40;;;;;;;19.84;60.37;99392.58;;;;-57
2020/10/25 13:27:44;;;;;;;1.40;1.30;;;;;;;19.84;60.26;99384.13;;;;-57
2020/10/25 13:30:44;;;;;;;1.61;1.51;;;;;;;19.84;60.30;99377.63;;;;-58
2020/10/25 13:33:44;;;;;;;1.50;1.40;;;;;;;19.84;60.31;99365.66;;;;-57
2020/10/25 13:36:44;;;;;;;1.51;1.41;;;;;;;19.84;60.27;99370.14;;;;-57
2020/10/25 13:39:44;;;;;;;1.49;1.39;;;;;;;19.83;60.34;99376.31;;;;-57
2020/10/25 13:42:44;;;;;;;1.50;1.37;;;;;;;19.83;60.28;99382.50;;;;-57
2020/10/25 13:45:44;;;;;;;2.13;1.45;;;;;;;19.84;60.31;99383.62;;;;-57
2020/10/25 13:48:44;;;;;;;1.61;1.51;;;;;;;19.83;60.25;99367.21;;;;-57
2020/10/25 13:51:44;;;;;;;1.49;1.39;;;;;;;19.83;60.29;99366.09;;;;-57
2020/10/25 13:54:44;;;;;;;1.53;1.43;;;;;;;19.84;60.34;99371.42;;;;-57
2020/10/25 13:57:44;;;;;;;5.35;1.48;;;;;;;19.83;60.39;99372.75;;;;-60
2020/10/25 14:00:44;;;;;;;1.47;1.37;;;;;;;19.81;60.38;99371.54;;;;-60
2020/10/25 14:03:44;;;;;;;1.80;1.48;;;;;;;19.83;60.36;99375.41;;;;-60
2020/10/25 14:06:44;;;;;;;1.90;1.43;;;;;;;19.81;60.41;99375.44;;;;-53
2020/10/25 14:09:44;;;;;;;2.72;1.30;;;;;;;19.83;60.59;99381.52;;;;-57
2020/10/25 14:12:44;;;;;;;2.74;1.40;;;;;;;19.85;60.60;99380.70;;;;-58
2020/10/25 14:15:44;;;;;;;3.79;1.54;;;;;;;19.86;60.78;99380.52;;;;-52
2020/10/25 14:18:44;;;;;;;3.87;1.40;;;;;;;19.88;60.85;99377.89;;;;-51
2020/10/25 14:21:44;;;;;;;4.33;1.50;;;;;;;19.89;60.81;99376.80;;;;-56
2020/10/25 14:24:44;;;;;;;1.95;1.40;;;;;;;19.90;60.84;99358.36;;;;-56
2020/10/25 14:27:44;;;;;;;9.79;1.55;;;;;;;19.91;60.65;99341.99;;;;-55
2020/10/25 14:30:52;;;;;;;3.57;1.60;;;;;;;19.91;60.77;99338.49;;;;-56
2020/10/25 14:33:44;;;;;;;3.97;1.52;;;;;;;19.91;60.66;99331.19;;;;-56
2020/10/25 14:36:44;;;;;;;3.10;1.47;;;;;;;19.90;60.64;99330.23;;;;-56
2020/10/25 14:39:44;;;;;;;3.01;1.41;;;;;;;19.90;60.58;99329.34;;;;-56
2020/10/25 14:42:44;;;;;;;2.61;1.41;;;;;;;19.90;60.60;99318.66;;;;-55
2020/10/25 14:45:44;;;;;;;2.26;1.50;;;;;;;19.89;60.56;99309.80;;;;-57
2020/10/25 14:48:44;;;;;;;2.09;1.41;;;;;;;19.89;60.58;99306.01;;;;-56
2020/10/25 14:51:44;;;;;;;6.66;1.58;;;;;;;19.89;60.66;99290.23;;;;-55
2020/10/25 14:54:44;;;;;;;3.37;1.51;;;;;;;19.89;60.76;99300.22;;;;-52
2020/10/25 14:57:44;;;;;;;2.49;1.57;;;;;;;19.92;60.71;99308.16;;;;-54
2020/10/25 15:00:44;;;;;;;2.38;1.51;;;;;;;19.92;60.71;99313.94;;;;-55
2020/10/25 15:03:44;;;;;;;2.49;1.46;;;;;;;19.93;60.84;99316.92;;;;-57
2020/10/25 15:06:44;;;;;;;2.14;1.41;;;;;;;19.94;60.83;99319.33;;;;-57
2020/10/25 15:09:44;;;;;;;5.61;1.50;;;;;;;19.95;60.82;99326.09;;;;-59
2020/10/25 15:12:44;;;;;;;3.38;1.46;;;;;;;19.94;60.76;99323.16;;;;-67
2020/10/25 15:15:44;;;;;;;2.51;1.57;;;;;;;19.94;60.76;99315.44;;;;-64
2020/10/25 15:18:44;;;;;;;3.24;1.52;;;;;;;19.93;60.62;99310.33;;;;-69
2020/10/25 15:21:44;;;;;;;1.98;1.40;;;;;;;19.94;60.70;99314.37;;;;-67
2020/10/25 15:24:44;;;;;;;3.58;1.52;;;;;;;19.93;60.63;99319.05;;;;-67
2020/10/25 15:27:44;;;;;;;2.57;1.40;;;;;;;19.92;60.63;99314.64;;;;-68
2020/10/25 15:30:44;;;;;;;2.73;1.59;;;;;;;19.92;60.64;99307.09;;;;-68
2020/10/25 15:33:44;;;;;;;1.68;1.39;;;;;;;19.91;60.52;99307.91;;;;-66
2020/10/25 15:36:44;;;;;;;1.81;1.40;;;;;;;19.90;60.58;99305.67;;;;-64
2020/10/25 15:39:44;;;;;;;1.81;1.29;;;;;;;19.90;60.57;99303.16;;;;-68
2020/10/25 15:42:44;;;;;;;2.95;1.51;;;;;;;19.89;60.56;99302.58;;;;-57
2020/10/25 15:45:44;;;;;;;1.78;1.47;;;;;;;19.89;60.58;99304.88;;;;-56
2020/10/25 15:48:44;;;;;;;1.60;1.50;;;;;;;19.88;60.55;99300.58;;;;-57
2020/10/25 15:51:44;;;;;;;1.63;1.48;;;;;;;19.88;60.53;99293.99;;;;-57
2020/10/25 15:54:44;;;;;;;1.49;1.39;;;;;;;19.88;60.54;99288.77;;;;-57
2020/10/25 15:57:44;;;;;;;2.05;1.47;;;;;;;19.87;60.61;99285.30;;;;-57
2020/10/25 16:00:44;;;;;;;1.87;1.43;;;;;;;19.86;60.56;99281.90;;;;-57
2020/10/25 16:03:44;;;;;;;3.55;1.40;;;;;;;19.85;60.60;99287.91;;;;-57
2020/10/25 16:06:44;;;;;;;1.93;1.49;;;;;;;19.85;60.56;99287.59;;;;-56
2020/10/25 16:09:44;;;;;;;2.37;1.50;;;;;;;19.85;60.61;99292.97;;;;-57
2020/10/25 16:12:44;;;;;;;1.82;1.41;;;;;;;19.84;60.61;99298.27;;;;-57
2020/10/25 16:39:44;;;;;;;4.23;1.63;;;;;;;19.81;60.76;99289.43;;;;-49
2020/10/25 16:42:44;;;;;;;4.78;1.65;;;;;;;19.82;60.84;99287.50;;;;-55
2020/10/25 16:47:17;;;;;;;2.87;1.40;;;;;;;19.85;60.94;99287.20;;;;-49
2020/10/25 16:50:16;;;;;;;2.25;1.41;;;;;;;19.87;60.96;99286.92;;;;-46
2020/10/25 16:53:52;;;;;;;1.79;1.42;;;;;;;19.88;61.03;99290.91;;;;-50
2020/10/25 16:57:54;;;;;;;1.43;1.33;;;;;;;19.92;61.08;99291.73;;;;-51
2020/10/25 19:41:44;;;;;;;2.33;1.69;;;;;;;20.81;60.54;99392.69;;;;-60
2020/10/25 19:44:44;;;;;;;2.28;1.71;;;;;;;20.83;60.60;99391.17;;;;-52
2020/10/25 19:47:44;;;;;;;2.05;1.63;;;;;;;20.84;60.75;99386.28;;;;-53
2020/10/25 19:50:44;;;;;;;4.39;1.77;;;;;;;20.86;60.58;99394.95;;;;-59
2020/10/25 19:53:44;;;;;;;3.59;1.70;;;;;;;20.88;60.67;99391.43;;;;-54
2020/10/25 19:56:44;;;;;;;2.32;1.61;;;;;;;20.89;60.76;99391.47;;;;-60
2020/10/25 19:59:44;;;;;;;2.37;1.60;;;;;;;20.90;60.59;99386.04;;;;-53
2020/10/25 20:02:44;;;;;;;2.60;1.62;;;;;;;20.91;60.65;99378.01;;;;-52
2020/10/25 20:05:46;;;;;;;2.16;1.75;;;;;;;20.93;60.77;99377.48;;;;-53
2020/10/25 20:08:44;;;;;;;1.70;1.60;;;;;;;20.94;60.47;99366.81;;;;-50